Latest Coastal Weather Observations for Onslow Airport

IDW60701

Issued at 5:22 pm WST Friday 31 July 2015 (issued every 10 minutes, with the page automatically refreshed every 10 minutes)

About coastal observations | Map of coastal stations | Coastal observations for WA | Marine services | Other Formats
Station Details ID: 005017 Name: ONSLOW AIRPORT Lat: -21.67 Lon: 115.11 Height: 10.5 m
Data from the previous 72 hours. | See also: Recent months at Onslow Airport
Date/Time
WST
Temp

°C
Wind Pressure Rain
since 9am
mm
Weather Cloud Vis
km
Sea
Height
m
Swell
Dir
 
Speed
knots
Gust
knots
hPa Trend Height
m
Period
s
Dir
31/05:00pm 24.1 WNW 13 16 1015.5 - 0.0 - - - - - - -
31/04:30pm 24.9 WNW 14 17 1015.2 - 0.0 - - - - - - -
31/04:00pm 26.1 W 14 16 1015.2 - 0.0 - - - - - - -
31/03:30pm 26.6 W 13 16 1015.2 - 0.0 - - - - - - -
31/03:00pm 26.6 WNW 12 15 1015.2 - 0.0 - - - - - - -
31/02:30pm 26.7 WNW 12 14 1015.5 - 0.0 - - - - - - -
31/02:00pm 27.2 NW 11 13 1015.8 - 0.0 - - - - - - -
31/01:30pm 27.0 NW 9 11 1016.1 - 0.0 - - - - - - -
31/01:00pm 27.6 NW 7 9 1016.5 - 0.0 - - - - - - -
31/12:30pm 26.1 NW 7 10 1016.9 - 0.0 - - - - - - -
31/12:00pm 27.2 WNW 7 8 1017.2 - 0.0 - - - - - - -
31/11:30am 26.0 WNW 8 11 1017.6 - 0.0 - - - - - - -
31/11:00am 25.6 WSW 8 11 1018.0 - 0.0 - - - - - - -
31/10:30am 24.2 SW 4 6 1018.2 - 0.0 - - - - - - -
31/10:00am 22.5 WSW 6 8 1018.7 - 0.0 - - - - - - -
31/09:30am 21.1 SW 3 6 1018.9 - 0.0 - - - - - - -
31/09:00am 20.3 ESE 4 5 1018.7 - 0.0 - - - - - - -
31/08:30am 18.7 S 6 13 1018.5 - 0.0 - - - - - - -
31/08:00am 18.4 SSW 5 5 1018.1 - 0.0 - - - - - - -
31/07:30am 18.2 ESE 2 3 1017.5 - 0.0 - - - - - - -
31/07:00am 18.1 E 5 5 1017.0 - 0.0 - - - - - - -
31/06:30am 18.1 ESE 5 6 1016.9 - 0.0 - - - - - - -
31/06:00am 17.7 ESE 4 5 1016.7 - 0.0 - - - - - - -
31/05:30am 17.7 E 4 5 1016.7 - 0.0 - - - - - - -
31/05:00am 18.4 ESE 5 6 1016.7 - 0.0 - - - - - - -
31/04:30am 17.9 ESE 5 6 1016.9 - 0.0 - - - - - - -
31/04:00am 18.5 ESE 5 6 1017.0 - 0.0 - - - - - - -
31/03:30am 18.5 E 4 4 1017.1 - 0.0 - - - - - - -
31/03:00am 18.7 E 3 4 1017.3 - 0.0 - - - - - - -
31/02:30am 18.0 CALM 0 0 1017.5 - 0.0 - - - - - - -
31/02:00am 18.9 CALM 0 0 1017.7 - 0.0 - - - - - - -
31/01:30am 19.1 WNW 4 4 1018.0 - 0.0 - - - - - - -
31/01:00am 19.2 NW 4 4 1018.4 - 0.0 - - - - - - -
31/12:30am 19.4 NW 4 5 1018.5 - 0.0 - - - - - - -
31/12:00am 19.3 NW 5 6 1018.7 - 0.0 - - - - - - -
 
Date/Time
WST
Temp

°C
Wind Pressure Rain
since 9am
mm
Weather Cloud Vis
km
Sea
Height
m
Swell
Dir
 
Speed
knots
Gust
knots
hPa Trend Height
m
Period
s
Dir
30/11:30pm 19.6 NW 5 5 1019.0 - 0.0 - - - - - - -
30/11:00pm 20.2 NNW 1 4 1019.4 - 0.0 - - - - - - -
30/10:30pm 20.2 CALM 0 0 1019.7 - 0.0 - - - - - - -
30/10:00pm 20.3 CALM 0 0 1019.8 - 0.0 - - - - - - -
30/09:30pm 20.5 W 3 3 1019.8 - 0.0 - - - - - - -
30/09:00pm 20.5 CALM 0 0 1019.5 - 0.0 - - - - - - -
30/08:30pm 20.7 WNW 4 5 1019.4 - 0.0 - - - - - - -
30/08:00pm 21.1 WNW 6 7 1019.1 - 0.0 - - - - - - -
30/07:30pm 21.4 NW 6 7 1018.7 - 0.0 - - - - - - -
30/07:00pm 22.1 NW 6 7 1018.5 - 0.0 - - - - - - -
30/06:30pm 22.5 NW 6 7 1018.3 - 0.0 - - - - - - -
30/06:00pm 23.3 NNW 8 11 1018.0 - 0.0 - - - - - - -
30/05:30pm 24.7 NNW 11 13 1017.9 - 0.0 - - - - - - -
30/05:00pm 26.1 NNW 11 13 1017.7 - 0.0 - - - - - - -
30/04:30pm 27.0 NNW 11 12 1017.8 - 0.0 - - - - - - -
30/04:00pm 27.9 N 10 12 1017.7 - 0.0 - - - - - - -
30/03:30pm 28.5 N 11 13 1017.7 - 0.0 - - - - - - -
30/03:00pm 29.0 N 11 12 1017.8 - 0.0 - - - - - - -
30/02:30pm 29.1 NNW 10 12 1017.8 - 0.0 - - - - - - -
30/02:00pm 29.5 N 10 11 1018.0 - 0.0 - - - - - - -
30/01:30pm 29.3 N 9 11 1018.4 - 0.0 - - - - - - -
30/01:00pm 29.2 N 11 13 1018.7 - 0.0 - - - - - - -
30/12:30pm 29.9 N 9 11 1019.1 - 0.0 - - - - - - -
30/12:00pm 29.7 NNE 6 8 1019.4 - 0.0 - - - - - - -
30/11:30am 29.5 NE 5 7 1019.6 - 0.0 - - - - - - -
30/11:00am 28.6 ENE 4 5 1020.1 - 0.0 - - - - - - -
30/10:30am 28.2 E 3 5 1020.5 - 0.0 - - - - - - -
30/10:00am 27.3 NE 4 6 1020.6 - 0.0 - - - - - - -
30/09:30am 26.2 E 3 5 1020.5 - 0.0 - - - - - - -
30/09:00am 24.9 ESE 2 4 1020.5 - 0.0 - - - - - - -
30/08:30am 23.2 E 4 5 1020.1 - 0.0 - - - - - - -
30/08:00am 21.9 NE 4 5 1019.8 - 0.0 - - - - - - -
30/07:30am 19.8 NE 5 6 1019.4 - 0.0 - - - - - - -
30/07:00am 18.2 NE 5 6 1019.0 - 0.0 - - - - - - -
30/06:30am 18.1 ENE 3 4 1018.9 - 0.0 - - - - - - -
30/06:00am 18.4 ENE 5 6 1018.5 - 0.0 - - - - - - -
30/05:30am 18.5 ESE 1 4 1018.4 - 0.0 - - - - - - -
30/05:00am 18.4 CALM 0 2 1018.2 - 0.0 - - - - - - -
30/04:30am 18.3 ESE 4 4 1018.2 - 0.0 - - - - - - -
30/04:00am 18.4 ESE 3 3 1018.3 - 0.0 - - - - - - -
30/03:30am 19.2 ESE 5 6 1018.5 - 0.0 - - - - - - -
30/03:00am 19.2 SE 5 6 1018.7 - 0.0 - - - - - - -
30/02:30am 19.1 SSE 6 6 1018.9 - 0.0 - - - - - - -
30/02:00am 19.1 S 5 6 1019.0 - 0.0 - - - - - - -
30/01:30am 19.6 SSE 4 5 1019.2 - 0.0 - - - - - - -
30/01:00am 19.5 SSE 6 8 1019.3 - 0.0 - - - - - - -
30/12:30am 20.1 S 9 12 1019.5 - 0.0 - - - - - - -
30/12:00am 20.7 NE 6 6 1019.2 - 0.0 - - - - - - -
 
Date/Time
WST
Temp

°C
Wind Pressure Rain
since 9am
mm
Weather Cloud Vis
km
Sea
Height
m
Swell
Dir
 
Speed
knots
Gust
knots
hPa Trend Height
m
Period
s
Dir
29/11:30pm 20.4 NE 5 6 1019.5 - 0.0 - - - - - - -
29/11:00pm 21.1 ENE 4 4 1019.6 - 0.0 - - - - - - -
29/10:30pm 21.0 CALM 0 0 1019.6 - 0.0 - - - - - - -
29/10:00pm 21.8 CALM 0 0 1019.7 - 0.0 - - - - - - -
29/09:30pm 21.7 S 2 3 1019.9 - 0.0 - - - - - - -
29/09:00pm 22.2 CALM 0 0 1019.8 - 0.0 - - - - - - -
29/08:30pm 21.8 SSW 4 4 1019.8 - 0.0 - - - - - - -
29/08:00pm 22.1 SW 4 5 1019.7 - 0.0 - - - - - - -
29/07:30pm 22.3 WSW 5 7 1019.2 - 0.0 - - - - - - -
29/07:00pm 22.1 WSW 6 8 1018.9 - 0.0 - - - - - - -
29/06:30pm 23.2 WSW 8 10 1018.6 - 0.0 - - - - - - -
29/06:00pm 23.3 W 9 11 1018.2 - 0.0 - - - - - - -
29/05:30pm 24.4 WNW 8 11 1018.1 - 0.0 - - - - - - -
29/05:00pm 25.7 WNW 9 11 1018.0 - 0.0 - - - - - - -
29/04:30pm 27.1 NW 9 10 1017.8 - 0.0 - - - - - - -
29/04:00pm 27.7 NW 9 11 1017.9 - 0.0 - - - - - - -
29/03:30pm 28.9 NW 9 11 1018.0 - 0.0 - - - - - - -
29/03:00pm 29.4 WNW 8 10 1018.0 - 0.0 - - - - - - -
29/02:30pm 30.4 NW 8 10 1018.2 - 0.0 - - - - - - -
29/02:00pm 29.9 NNW 9 11 1018.3 - 0.0 - - - - - - -
29/01:30pm 31.0 NNW 9 11 1018.7 - 0.0 - - - - - - -
29/01:00pm 31.2 NW 9 11 1019.0 - 0.0 - - - - - - -
29/12:30pm 31.9 NNE 4 7 1019.5 - 0.0 - - - - - - -
29/12:00pm 31.6 E 5 7 1019.9 - 0.0 - - - - - - -
29/11:30am 31.2 ESE 6 11 1020.2 - 0.0 - - - - - - -
29/11:00am 30.2 ESE 7 9 1020.4 - 0.0 - - - - - - -
29/10:30am 29.3 ESE 8 10 1020.8 - 0.0 - - - - - - -
29/10:00am 27.5 SE 9 10 1021.0 - 0.0 - - - - - - -
29/09:30am 25.0 SE 7 9 1021.2 - 0.0 - - - - - - -
29/09:00am 23.1 SE 6 7 1021.2 - 0.0 - - - - - - -
29/08:30am 21.7 SE 7 8 1020.9 - 0.0 - - - - - - -
29/08:00am 19.5 ESE 7 8 1020.7 - 0.0 - - - - - - -
29/07:30am 17.7 ESE 6 8 1020.5 - 0.0 - - - - - - -
29/07:00am 15.9 SE 5 6 1020.1 - 0.0 - - - - - - -
29/06:30am 15.9 SSE 7 7 1019.9 - 0.0 - - - - - - -
29/06:00am 16.9 SE 7 8 1019.6 - 0.0 - - - - - - -
29/05:30am 16.6 ESE 6 7 1019.5 - 0.0 - - - - - - -
29/05:00am 16.6 ESE 6 7 1019.5 - 0.0 - - - - - - -
29/04:30am 16.8 ESE 6 7 1019.5 - 0.0 - - - - - - -
29/04:00am 16.9 ESE 7 8 1019.6 - 0.0 - - - - - - -
29/03:30am 16.6 ESE 6 7 1019.7 - 0.0 - - - - - - -
29/03:00am 16.4 SE 6 7 1019.8 - 0.0 - - - - - - -
29/02:30am 16.9 SSE 7 8 1020.0 - 0.0 - - - - - - -
29/02:00am 16.9 SSE 6 6 1020.2 - 0.0 - - - - - - -
29/01:30am 17.2 SSE 7 7 1020.5 - 0.0 - - - - - - -
29/01:00am 17.5 SSE 5 6 1020.6 - 0.0 - - - - - - -
29/12:30am 17.7 SSE 5 7 1020.7 - 0.0 - - - - - - -
29/12:00am 18.6 ESE 3 5 1020.8 - 0.0 - - - - - - -
 
Date/Time
WST
Temp

°C
Wind Pressure Rain
since 9am
mm
Weather Cloud Vis
km
Sea
Height
m
Swell
Dir
 
Speed
knots
Gust
knots
hPa Trend Height
m
Period
s
Dir
28/11:30pm 18.5 SE 4 5 1021.0 - 0.0 - - - - - - -
28/11:00pm 19.2 SE 4 5 1021.2 - 0.0 - - - - - - -
28/10:30pm 19.6 E 3 4 1021.3 - 0.0 - - - - - - -
28/10:00pm 19.5 SE 2 4 1021.3 - 0.0 - - - - - - -
28/09:30pm 19.7 CALM 0 0 1021.1 - 0.0 - - - - - - -
28/09:00pm 19.7 CALM 0 0 1021.0 - 0.0 - - - - - - -
28/08:30pm 20.0 NNW 4 4 1020.9 - 0.0 - - - - - - -
28/08:00pm 20.4 NW 5 6 1020.9 - 0.0 - - - - - - -
28/07:30pm 20.3 NW 6 7 1020.6 - 0.0 - - - - - - -
28/07:00pm 20.7 NW 7 7 1020.5 - 0.0 - - - - - - -
28/06:30pm 21.3 NW 8 8 1020.2 - 0.0 - - - - - - -
28/06:00pm 22.2 NW 7 10 1020.1 - 0.0 - - - - - - -
28/05:30pm 23.6 NNW 9 11 1019.9 - 0.0 - - - - - - -

Other Formats:

Comma delimited format used in spreadsheet applications
http://www.bom.gov.au/fwo/IDW60701/IDW60701.95305.axf

JavaScript Object Notation format (JSON) in row-major order
http://www.bom.gov.au/fwo/IDW60701/IDW60701.95305.json